Time;durP1;ratioP1;P1;durP2;ratioP2;P2;SDS_P1;SDS_P2;PMS_P1;PMS_P2;Temp;Humidity;BMP_temperature;BMP_pressure;BME280_temperature;BME280_humidity;BME280_pressure;Samples;Min_cycle;Max_cycle;Signal;HPM_P1;HPM_P2
2022/09/28 00:01:06;;;;;;;1.55;1.00;;;;;;;17.95;100.00;94893.84;5105849;27;20083;-52
2022/09/28 00:03:35;;;;;;;1.08;0.80;;;;;;;17.89;100.00;94889.41;5106355;27;20082;-49
2022/09/28 00:06:04;;;;;;;1.50;1.05;;;;;;;17.59;100.00;94892.09;5107433;27;20087;-48
2022/09/28 00:08:34;;;;;;;2.05;0.85;;;;;;;17.16;100.00;94882.41;5108011;27;20071;-49
2022/09/28 00:11:04;;;;;;;1.85;0.85;;;;;;;17.94;100.00;94881.56;5102909;27;20075;-50
2022/09/28 00:13:33;;;;;;;1.67;1.10;;;;;;;17.69;100.00;94881.72;5108718;27;20086;-46
2022/09/28 00:16:03;;;;;;;1.20;0.85;;;;;;;17.98;100.00;94871.25;5106904;27;20075;-48
2022/09/28 00:18:31;;;;;;;1.15;0.82;;;;;;;17.38;100.00;94869.44;5109470;27;20085;-47
2022/09/28 00:21:01;;;;;;;1.17;1.02;;;;;;;18.15;100.00;94850.84;5106801;27;20544;-54
2022/09/28 00:23:29;;;;;;;1.95;1.10;;;;;;;17.06;100.00;94863.50;5108181;27;20078;-49
2022/09/28 00:26:03;;;;;;;1.63;1.00;;;;;;;17.70;100.00;94853.19;5104902;28;20126;-52
2022/09/28 00:28:32;;;;;;;2.17;0.90;;;;;;;17.32;100.00;94857.00;5106243;27;20058;-51
2022/09/28 00:31:00;;;;;;;1.77;1.20;;;;;;;17.53;100.00;94843.19;5106865;27;20077;-53
2022/09/28 00:33:29;;;;;;;1.85;1.05;;;;;;;17.68;100.00;94842.75;5113057;27;20075;-50
2022/09/28 00:35:57;;;;;;;1.83;1.00;;;;;;;17.39;100.00;94830.28;5108029;27;20086;-48
2022/09/28 00:38:27;;;;;;;1.63;0.98;;;;;;;18.15;100.00;94821.50;5109217;27;20115;-45
2022/09/28 00:40:56;;;;;;;2.85;0.98;;;;;;;18.10;100.00;94812.56;5108289;27;20473;-48
2022/09/28 00:43:26;;;;;;;1.20;0.90;;;;;;;18.17;100.00;94814.09;5104139;28;20075;-51
2022/09/28 00:45:59;;;;;;;1.70;0.88;;;;;;;18.15;100.00;94810.03;5102463;28;20063;-53
2022/09/28 00:48:30;;;;;;;2.03;1.00;;;;;;;17.69;100.00;94804.41;5097848;27;20066;-53
2022/09/28 00:50:58;;;;;;;;;;;;;;;17.95;100.00;94802.34;5107188;27;20074;-49
2022/09/28 00:53:31;;;;;;;3.35;1.00;;;;;;;17.69;100.00;94799.06;5099417;28;20676;-48
2022/09/28 00:56:02;;;;;;;1.02;0.90;;;;;;;18.26;100.00;94794.00;5104454;27;20086;-46
2022/09/28 00:58:35;;;;;;;1.08;0.80;;;;;;;17.89;100.00;94787.28;5114488;27;20071;-45
2022/09/28 01:01:04;;;;;;;0.82;0.80;;;;;;;18.00;100.00;94781.16;5104203;28;20076;-48
2022/09/28 01:03:33;;;;;;;2.05;0.98;;;;;;;18.31;100.00;94774.63;5112839;27;20082;-49
2022/09/28 01:06:03;;;;;;;1.35;0.85;;;;;;;18.54;100.00;94771.09;5107501;28;20082;-45
2022/09/28 01:08:32;;;;;;;0.75;0.73;;;;;;;18.09;100.00;94765.59;5103015;28;20438;-44
2022/09/28 01:11:02;;;;;;;0.80;0.80;;;;;;;17.63;100.00;94761.84;5102242;28;20089;-45
2022/09/28 01:13:32;;;;;;;1.05;0.95;;;;;;;17.38;100.00;94765.53;5110311;27;20074;-46
2022/09/28 01:16:07;;;;;;;3.70;0.90;;;;;;;17.50;100.00;94752.22;5106703;28;20082;-48
2022/09/28 01:18:42;;;;;;;1.85;0.80;;;;;;;17.92;100.00;94742.28;5105959;27;20783;-48
2022/09/28 01:21:15;;;;;;;1.73;0.85;;;;;;;17.74;100.00;94747.72;5107772;27;20090;-47
2022/09/28 01:23:59;;;;;;;1.20;0.75;;;;;;;17.28;100.00;94750.09;5101158;28;20075;-48
2022/09/28 01:26:49;;;;;;;1.98;0.90;;;;;;;17.48;100.00;94743.63;5108166;27;20516;-47
2022/09/28 01:29:19;;;;;;;;;;;;;;;16.59;100.00;94740.78;5107863;28;20079;-52
2022/09/28 01:31:51;;;;;;;0.88;0.88;;;;;;;16.67;100.00;94740.47;5102916;28;19970;-48
2022/09/28 01:34:24;;;;;;;4.97;1.00;;;;;;;17.05;100.00;94731.38;5107264;28;20079;-49
2022/09/28 01:36:55;;;;;;;0.82;0.82;;;;;;;16.63;100.00;94733.16;5103725;28;20083;-47
2022/09/28 01:39:28;;;;;;;1.70;0.82;;;;;;;16.41;100.00;94725.63;5113507;27;20078;-47
2022/09/28 01:42:00;;;;;;;1.35;0.70;;;;;;;16.43;100.00;94720.09;5109192;27;20075;-46
2022/09/28 01:44:30;;;;;;;1.77;0.70;;;;;;;16.61;100.00;94710.22;5114929;27;20078;-45
2022/09/28 01:47:03;;;;;;;0.90;0.70;;;;;;;16.88;100.00;94711.75;5120792;27;20089;-47
2022/09/28 01:49:34;;;;;;;0.90;0.75;;;;;;;16.83;100.00;94704.47;5110606;27;20078;-51
2022/09/28 01:52:07;;;;;;;1.73;0.70;;;;;;;16.91;100.00;94696.16;5110525;27;20324;-45
2022/09/28 01:54:40;;;;;;;0.63;0.60;;;;;;;17.08;100.00;94689.13;5111434;27;20125;-49
2022/09/28 01:57:19;;;;;;;1.02;0.80;;;;;;;17.13;100.00;94685.78;5112726;27;20075;-48
2022/09/28 01:59:53;;;;;;;0.60;0.60;;;;;;;16.68;100.00;94688.84;5122101;27;20079;-49
2022/09/28 02:02:25;;;;;;;0.82;0.80;;;;;;;16.64;100.00;94686.88;5104774;27;20075;-50
2022/09/28 02:04:56;;;;;;;2.55;0.70;;;;;;;16.14;100.00;94682.63;5116400;27;20550;-47
2022/09/28 02:07:28;;;;;;;1.48;0.80;;;;;;;17.09;100.00;94671.28;5113372;27;20082;-48
2022/09/28 02:09:59;;;;;;;1.95;0.73;;;;;;;16.83;100.00;94660.03;5113777;27;20170;-49
2022/09/28 02:12:30;;;;;;;;;;;;;;;17.49;100.00;94647.47;5109188;27;20574;-45
2022/09/28 02:15:06;;;;;;;0.70;0.70;;;;;;;17.44;100.00;94642.00;5107819;27;19959;-47
2022/09/28 02:17:35;;;;;;;1.58;0.70;;;;;;;16.88;100.00;94643.34;5117567;27;20079;-46
2022/09/28 02:20:04;;;;;;;1.75;0.80;;;;;;;17.50;100.00;94638.44;5113052;27;20548;-45
2022/09/28 02:22:34;;;;;;;2.50;0.70;;;;;;;17.01;100.00;94627.16;5113833;27;20521;-45
2022/09/28 02:25:07;;;;;;;1.65;0.70;;;;;;;17.84;100.00;94619.19;5111700;27;20087;-48
2022/09/28 02:27:41;;;;;;;3.20;0.80;;;;;;;17.70;100.00;94611.41;5115851;27;20071;-46
2022/09/28 02:30:10;;;;;;;2.08;0.75;;;;;;;17.66;100.00;94612.94;5106892;27;20556;-54
2022/09/28 02:32:41;;;;;;;0.75;0.70;;;;;;;17.30;100.00;94612.13;5108264;27;20071;-47
2022/09/28 02:35:10;;;;;;;;;;;;;;;17.62;100.00;94608.28;5117586;27;20123;-46
2022/09/28 02:37:39;;;;;;;0.82;0.70;;;;;;;17.04;100.00;94609.94;5092656;28;19971;-45
2022/09/28 02:40:14;;;;;;;0.80;0.80;;;;;;;17.14;100.00;94601.38;5110624;27;20043;-44
2022/09/28 02:43:00;;;;;;;3.05;0.90;;;;;;;17.82;100.00;94595.41;5120220;27;20078;-48
2022/09/28 02:45:39;;;;;;;2.05;0.85;;;;;;;17.37;100.00;94595.22;5115779;27;20078;-51
2022/09/28 02:48:16;;;;;;;1.30;0.80;;;;;;;17.50;100.00;94585.13;5114829;27;20524;-46
2022/09/28 02:51:08;;;;;;;1.45;0.80;;;;;;;17.78;100.00;94586.28;5108520;27;20075;-45
2022/09/28 02:53:57;;;;;;;1.88;0.80;;;;;;;17.24;100.00;94582.94;5105594;27;20074;-54
2022/09/28 02:56:38;;;;;;;0.80;0.70;;;;;;;17.79;100.00;94577.25;5101562;27;20072;-46
2022/09/28 02:59:13;;;;;;;1.08;0.90;;;;;;;17.71;100.00;94582.91;5111763;27;20091;-53
2022/09/28 03:01:51;;;;;;;1.15;0.75;;;;;;;17.94;100.00;94574.88;5108528;27;20082;-50
2022/09/28 03:04:28;;;;;;;2.38;0.90;;;;;;;17.37;100.00;94573.91;5107005;27;20468;-49
2022/09/28 03:07:01;;;;;;;1.40;0.80;;;;;;;16.59;100.00;94565.97;5109562;27;20103;-47
2022/09/28 03:09:32;;;;;;;1.77;0.80;;;;;;;17.60;100.00;94557.88;5102066;27;20568;-46
2022/09/28 03:12:06;;;;;;;0.80;0.70;;;;;;;17.30;100.00;94553.53;5109451;27;20467;-46
2022/09/28 03:14:36;;;;;;;3.33;0.80;;;;;;;17.37;100.00;94553.41;5105385;27;20075;-45
2022/09/28 03:17:04;;;;;;;0.70;0.70;;;;;;;17.44;100.00;94537.28;5102693;27;20086;-49
2022/09/28 03:19:35;;;;;;;1.38;0.70;;;;;;;17.58;100.00;94535.19;5111636;27;20083;-50
2022/09/28 03:22:04;;;;;;;1.33;0.90;;;;;;;17.32;100.00;94539.97;5108727;27;20481;-48
2022/09/28 03:24:32;;;;;;;1.73;0.90;;;;;;;17.18;100.00;94536.75;5109637;27;20083;-52
2022/09/28 03:27:01;;;;;;;1.85;0.80;;;;;;;17.13;100.00;94538.47;5104535;27;20052;-51
2022/09/28 03:29:31;;;;;;;1.48;0.90;;;;;;;17.31;100.00;94536.50;5107334;27;20079;-47
2022/09/28 03:32:02;;;;;;;2.78;0.80;;;;;;;17.00;100.00;94540.34;5106632;27;20474;-54
2022/09/28 03:34:30;;;;;;;1.73;0.80;;;;;;;16.58;100.00;94544.91;5107869;27;20109;-50
2022/09/28 03:36:58;;;;;;;1.02;0.77;;;;;;;16.40;100.00;94545.78;5107513;27;20137;-47
2022/09/28 03:39:26;;;;;;;1.50;0.75;;;;;;;16.26;100.00;94539.03;5114896;27;20537;-49
2022/09/28 03:41:55;;;;;;;1.05;0.80;;;;;;;16.65;100.00;94534.16;5105851;27;20038;-49
2022/09/28 03:44:23;;;;;;;2.65;0.90;;;;;;;16.76;100.00;94520.91;5114816;27;20075;-43
2022/09/28 03:46:51;;;;;;;1.25;0.90;;;;;;;17.22;100.00;94523.78;5106322;27;20102;-50
2022/09/28 03:49:21;;;;;;;0.73;0.73;;;;;;;17.02;100.00;94522.28;5103370;28;20521;-52
2022/09/28 03:51:49;;;;;;;1.37;0.90;;;;;;;17.24;100.00;94513.69;5101865;27;20070;-50
2022/09/28 03:54:18;;;;;;;1.10;0.90;;;;;;;16.70;100.00;94508.47;5113357;27;20086;-47
2022/09/28 03:56:46;;;;;;;1.30;1.00;;;;;;;16.96;100.00;94506.41;5102147;27;20176;-49
2022/09/28 03:59:15;;;;;;;2.15;0.95;;;;;;;17.27;100.00;94506.06;5104312;27;20063;-53
2022/09/28 04:01:43;;;;;;;1.23;0.80;;;;;;;17.41;100.00;94501.28;5098428;27;20076;-46
2022/09/28 04:04:12;;;;;;;1.00;0.90;;;;;;;17.52;100.00;94496.97;5106478;28;20079;-48
2022/09/28 04:06:42;;;;;;;1.00;0.80;;;;;;;17.48;100.00;94501.13;5098729;28;20095;-48
2022/09/28 04:09:11;;;;;;;1.77;0.80;;;;;;;17.31;100.00;94493.09;5099749;27;21128;-43
2022/09/28 04:11:39;;;;;;;1.48;0.93;;;;;;;17.29;100.00;94498.63;5109020;27;20075;-49
2022/09/28 04:14:27;;;;;;;2.97;0.80;;;;;;;17.10;100.00;94499.81;5103714;27;20510;-50
2022/09/28 04:16:56;;;;;;;1.48;0.77;;;;;;;17.43;100.00;94488.53;5105573;27;20086;-49
2022/09/28 04:19:25;;;;;;;2.42;0.80;;;;;;;16.72;100.00;94494.94;5104826;27;20482;-47
2022/09/28 04:21:55;;;;;;;4.18;0.80;;;;;;;17.11;100.00;94495.31;5100087;27;20079;-47
2022/09/28 04:24:23;;;;;;;2.47;0.70;;;;;;;16.76;100.00;94491.63;5103349;28;20075;-49
2022/09/28 04:29:14;;;;;;;1.08;0.70;;;;;;;16.80;100.00;94490.13;5117390;27;20079;-49
2022/09/28 04:29:41;;;;;;;1.20;0.75;;;;;;;16.72;100.00;94487.75;5112095;27;20081;-46
2022/09/28 04:32:10;;;;;;;0.95;0.73;;;;;;;17.15;100.00;94483.94;5110611;27;20079;-46
2022/09/28 04:34:39;;;;;;;0.70;0.70;;;;;;;17.56;100.00;94474.94;5111777;27;20076;-49
2022/09/28 04:37:13;;;;;;;4.18;0.95;;;;;;;17.86;100.00;94475.78;5109351;27;20098;-47
2022/09/28 04:39:41;;;;;;;;;;;;;;;18.08;100.00;94479.38;5109539;28;20087;-48
2022/09/28 04:42:15;;;;;;;2.35;0.80;;;;;;;18.29;100.00;94469.88;5109405;28;19967;-54
2022/09/28 04:44:44;;;;;;;0.82;0.70;;;;;;;18.08;100.00;94468.72;5116731;27;20110;-46
2022/09/28 04:47:12;;;;;;;1.02;0.75;;;;;;;17.85;100.00;94466.16;5108501;27;20083;-48
2022/09/28 04:49:40;;;;;;;2.60;0.70;;;;;;;17.71;100.00;94470.94;5116453;27;20083;-48
2022/09/28 04:52:09;;;;;;;0.73;0.68;;;;;;;17.43;100.00;94469.88;5099459;28;20083;-47
2022/09/28 04:54:45;;;;;;;1.15;0.80;;;;;;;17.58;100.00;94473.88;5118702;27;20069;-49
2022/09/28 04:57:14;;;;;;;1.77;0.70;;;;;;;17.95;100.00;94469.81;5124671;27;20086;-51
2022/09/28 04:59:42;;;;;;;2.20;0.60;;;;;;;16.98;100.00;94483.03;5109393;28;21092;-51
2022/09/28 05:02:13;;;;;;;1.35;0.70;;;;;;;16.79;100.00;94477.00;5115748;27;20055;-51
2022/09/28 05:04:42;;;;;;;0.63;0.60;;;;;;;16.22;100.00;94480.19;5104741;28;20083;-53
2022/09/28 05:07:10;;;;;;;1.63;0.80;;;;;;;16.22;100.00;94482.84;5115493;27;20075;-52
2022/09/28 05:09:39;;;;;;;1.08;0.60;;;;;;;17.05;100.00;94483.72;5113457;27;20089;-51
2022/09/28 05:12:09;;;;;;;0.77;0.68;;;;;;;16.28;100.00;94492.56;5118204;27;20059;-53
2022/09/28 05:14:37;;;;;;;;;;;;;;;16.56;100.00;94488.44;5118531;27;20081;-47
2022/09/28 05:17:06;;;;;;;0.93;0.60;;;;;;;16.59;100.00;94485.34;5104563;27;19967;-49
2022/09/28 05:19:34;;;;;;;2.10;0.77;;;;;;;16.77;100.00;94482.59;5104121;27;20557;-49
2022/09/28 05:22:04;;;;;;;1.48;0.60;;;;;;;16.08;100.00;94479.56;5104525;28;20459;-49
2022/09/28 05:24:33;;;;;;;2.20;0.63;;;;;;;17.18;100.00;94485.34;5108966;27;20063;-46
2022/09/28 05:27:01;;;;;;;0.93;0.52;;;;;;;16.99;100.00;94479.31;5107809;27;20141;-48
2022/09/28 05:29:31;;;;;;;0.80;0.50;;;;;;;16.60;100.00;94482.44;5113108;27;20086;-46
2022/09/28 05:32:01;;;;;;;1.27;0.60;;;;;;;16.63;100.00;94480.38;5106918;28;20085;-53
2022/09/28 05:34:29;;;;;;;0.90;0.70;;;;;;;16.60;100.00;94476.31;5099435;28;20071;-48
2022/09/28 05:36:57;;;;;;;2.05;1.60;;;;;;;17.16;100.00;94474.91;5100562;28;20123;-46
2022/09/28 05:39:26;;;;;;;1.65;0.88;;;;;;;16.76;100.00;94475.66;5100168;28;20086;-45
2022/09/28 05:41:56;;;;;;;1.70;1.58;;;;;;;16.89;100.00;94474.59;5108055;28;20083;-47
2022/09/28 05:44:25;;;;;;;9.80;7.05;;;;;;;17.58;100.00;94456.03;5106063;28;20094;-54
2022/09/28 05:46:54;;;;;;;5.20;1.83;;;;;;;16.84;100.00;94445.19;5099474;28;20521;-54
2022/09/28 05:49:23;;;;;;;3.00;1.40;;;;;;;16.72;100.00;94439.84;5105256;28;20067;-50
2022/09/28 05:51:51;;;;;;;39.28;30.27;;;;;;;16.77;100.00;94434.69;5103696;28;20113;-46
2022/09/28 05:54:19;;;;;;;91.30;54.38;;;;;;;17.24;100.00;94412.47;5106541;28;20078;-46
2022/09/28 05:56:48;;;;;;;90.95;53.83;;;;;;;17.59;100.00;94411.56;5101952;28;20067;-52
2022/09/28 05:59:16;;;;;;;16.88;12.90;;;;;;;16.73;100.00;94425.50;5099323;28;20079;-50
2022/09/28 06:01:45;;;;;;;3.53;2.65;;;;;;;16.81;100.00;94409.22;5102916;28;20102;-47
2022/09/28 06:04:15;;;;;;;0.93;0.80;;;;;;;17.34;100.00;94402.00;5104184;28;20082;-51
2022/09/28 06:06:44;;;;;;;0.90;0.90;;;;;;;17.66;100.00;94404.22;5106247;28;20078;-51
2022/09/28 06:09:12;;;;;;;1.45;0.98;;;;;;;17.59;100.00;94407.03;5115267;28;20090;-51
2022/09/28 06:11:41;;;;;;;0.90;0.70;;;;;;;16.81;100.00;94422.50;5118749;28;20075;-53
2022/09/28 06:14:12;;;;;;;0.70;0.70;;;;;;;17.25;100.00;94406.91;5120735;28;20449;-49
2022/09/28 06:16:41;;;;;;;1.30;1.00;;;;;;;17.03;100.00;94417.41;5114917;28;20067;-52
2022/09/28 06:19:11;;;;;;;2.90;1.10;;;;;;;17.27;100.00;94427.97;5111962;28;20075;-53
2022/09/28 06:21:41;;;;;;;0.82;0.70;;;;;;;17.17;100.00;94415.28;5121455;28;20083;-48
2022/09/28 06:24:09;;;;;;;3.40;0.50;;;;;;;17.59;100.00;94408.91;5110643;28;20508;-48
2022/09/28 06:26:38;;;;;;;1.65;0.50;;;;;;;17.36;100.00;94410.59;5115921;27;20087;-48
2022/09/28 06:29:06;;;;;;;1.92;0.77;;;;;;;17.02;100.00;94418.44;5119022;27;20094;-52
2022/09/28 06:31:35;;;;;;;1.20;0.70;;;;;;;16.83;100.00;94432.94;5107221;27;20091;-55
2022/09/28 06:34:04;;;;;;;1.45;0.70;;;;;;;17.15;100.00;94417.38;5115391;27;20512;-46
2022/09/28 06:36:32;;;;;;;1.25;0.60;;;;;;;16.74;100.00;94419.16;5119195;27;20058;-47
2022/09/28 06:39:02;;;;;;;2.90;0.70;;;;;;;17.50;100.00;94408.44;5116273;27;20078;-50
2022/09/28 06:41:31;;;;;;;1.00;0.70;;;;;;;17.24;100.00;94401.81;5118923;27;20545;-48
2022/09/28 06:44:00;;;;;;;1.30;0.70;;;;;;;17.02;100.00;94401.66;5115884;27;20084;-51
2022/09/28 06:46:30;;;;;;;3.00;0.93;;;;;;;18.27;100.00;94398.09;5114673;27;20074;-50
2022/09/28 06:48:58;;;;;;;1.05;0.70;;;;;;;17.43;100.00;94408.59;5127878;27;20071;-49
2022/09/28 06:51:27;;;;;;;1.00;0.60;;;;;;;17.52;100.00;94401.03;5125340;27;20533;-57
2022/09/28 06:53:55;;;;;;;2.40;0.70;;;;;;;17.25;100.00;94398.94;5119781;27;20102;-53
2022/09/28 06:56:26;;;;;;;1.58;0.80;;;;;;;18.14;100.00;94397.59;5125343;27;20549;-47
2022/09/28 06:59:00;;;;;;;1.75;0.68;;;;;;;17.61;100.00;94401.44;5125819;27;20098;-48
2022/09/28 07:01:28;;;;;;;2.55;0.80;;;;;;;17.59;100.00;94401.69;5115443;27;20095;-50
2022/09/28 07:03:57;;;;;;;1.88;0.68;;;;;;;17.79;100.00;94403.97;5111428;28;20083;-50
2022/09/28 07:06:27;;;;;;;1.02;0.60;;;;;;;18.15;100.00;94405.34;5115246;27;20082;-54
2022/09/28 07:08:56;;;;;;;3.28;0.75;;;;;;;18.05;100.00;94409.72;5121483;27;20137;-54
2022/09/28 07:11:45;;;;;;;1.63;0.60;;;;;;;17.62;100.00;94409.22;5121135;27;20074;-52
2022/09/28 07:14:15;;;;;;;0.95;0.60;;;;;;;16.86;100.00;94427.13;5109440;27;20072;-50
2022/09/28 07:17:07;;;;;;;1.75;0.70;;;;;;;17.83;100.00;94420.28;5117436;27;20083;-44
2022/09/28 07:19:41;;;;;;;1.10;0.70;;;;;;;16.90;100.00;94432.81;5117856;27;20074;-47
2022/09/28 07:22:13;;;;;;;0.73;0.50;;;;;;;17.52;100.00;94433.00;5112245;27;20079;-46
2022/09/28 07:24:47;;;;;;;3.50;0.70;;;;;;;16.83;100.00;94440.94;5116814;27;20090;-44
2022/09/28 07:27:18;;;;;;;1.25;0.60;;;;;;;17.32;100.00;94438.75;5124132;27;20079;-45
2022/09/28 07:29:54;;;;;;;1.75;0.60;;;;;;;17.75;100.00;94435.56;5116693;27;20087;-48
2022/09/28 07:32:22;;;;;;;3.35;0.70;;;;;;;16.58;100.00;94438.47;5118018;27;20079;-48
2022/09/28 07:34:52;;;;;;;1.38;0.80;;;;;;;17.65;100.00;94432.75;5092512;27;20073;-46
2022/09/28 07:37:26;;;;;;;0.93;0.60;;;;;;;17.71;100.00;94436.28;5112147;27;20540;-45
2022/09/28 07:42:41;;;;;;;0.95;0.57;;;;;;;18.35;100.00;94425.41;5127681;27;20087;-48
2022/09/28 07:45:10;;;;;;;1.08;0.75;;;;;;;18.32;100.00;94436.56;5115295;27;20583;-45
2022/09/28 07:47:38;;;;;;;2.30;0.75;;;;;;;18.48;100.00;94433.91;5124056;27;20079;-49
2022/09/28 07:50:08;;;;;;;0.70;0.60;;;;;;;18.17;100.00;94435.28;5116278;27;20086;-47
2022/09/28 07:52:36;;;;;;;1.15;0.70;;;;;;;17.90;100.00;94440.41;5118446;27;20509;-47
2022/09/28 07:55:05;;;;;;;0.93;0.70;;;;;;;18.01;100.00;94444.88;5111187;27;20059;-49
2022/09/28 07:57:35;;;;;;;1.83;0.68;;;;;;;17.73;100.00;94450.19;5126621;27;20654;-48
2022/09/28 08:00:07;;;;;;;1.15;0.98;;;;;;;17.78;100.00;94448.44;5112669;27;20071;-49
2022/09/28 08:02:37;;;;;;;1.55;0.70;;;;;;;17.37;100.00;94446.84;5130601;27;20086;-47
2022/09/28 08:05:08;;;;;;;1.67;0.65;;;;;;;17.96;100.00;94454.63;5124241;27;20086;-49
2022/09/28 08:07:37;;;;;;;16.20;11.00;;;;;;;17.99;100.00;94454.16;5092616;28;20075;-50
2022/09/28 08:10:06;;;;;;;62.20;39.70;;;;;;;17.60;100.00;94455.81;5120737;27;20164;-49
2022/09/28 08:12:34;;;;;;;12.38;7.03;;;;;;;17.74;100.00;94460.59;5129574;27;20087;-50
2022/09/28 08:15:05;;;;;;;12.13;8.93;;;;;;;17.44;100.00;94457.34;5099686;28;20439;-47
2022/09/28 08:17:33;;;;;;;3.45;3.15;;;;;;;17.43;100.00;94461.88;5113443;27;20702;-47
2022/09/28 08:22:48;;;;;;;1.05;0.60;;;;;;;17.42;100.00;94478.91;5096785;27;20474;-51
2022/09/28 08:25:16;;;;;;;0.73;0.45;;;;;;;18.04;100.00;94467.59;5097119;27;20177;-50
2022/09/28 08:27:45;;;;;;;0.60;0.50;;;;;;;17.48;100.00;94477.97;5130074;27;20075;-47
2022/09/28 08:30:16;;;;;;;0.50;0.50;;;;;;;17.60;100.00;94479.78;5111216;27;20497;-49
2022/09/28 08:32:48;;;;;;;0.93;0.50;;;;;;;18.46;100.00;94480.56;5122842;27;20083;-53
2022/09/28 08:35:34;;;;;;;1.63;0.60;;;;;;;18.05;100.00;94481.72;5112760;27;20078;-47
2022/09/28 08:38:02;;;;;;;1.88;0.50;;;;;;;17.70;100.00;94480.81;5115247;27;20090;-49
2022/09/28 08:40:37;;;;;;;1.00;0.55;;;;;;;17.50;100.00;94488.38;5116949;27;20160;-48
2022/09/28 08:43:15;;;;;;;0.55;0.50;;;;;;;17.96;100.00;94473.28;5118326;27;20149;-50
2022/09/28 08:45:45;;;;;;;1.65;0.70;;;;;;;18.91;100.00;94469.00;5127082;27;20142;-47
2022/09/28 08:51:17;;;;;;;0.57;0.30;;;;;;;18.64;100.00;94482.97;5113342;27;20082;-48
2022/09/28 08:53:50;;;;;;;0.50;0.43;;;;;;;19.01;100.00;94484.38;5122521;27;20090;-50
2022/09/28 08:56:27;;;;;;;1.00;0.43;;;;;;;18.59;100.00;94496.25;5116045;27;20113;-47
2022/09/28 08:58:58;;;;;;;0.60;0.38;;;;;;;18.39;100.00;94507.41;5127291;27;20078;-47
2022/09/28 09:01:33;;;;;;;0.47;0.38;;;;;;;17.67;100.00;94534.56;5118645;27;20087;-55
2022/09/28 09:04:04;;;;;;;0.65;0.50;;;;;;;17.33;100.00;94542.41;5121001;27;20180;-51
2022/09/28 09:06:39;;;;;;;1.38;0.45;;;;;;;17.25;100.00;94545.44;5124797;27;20086;-51
2022/09/28 09:09:13;;;;;;;0.68;0.50;;;;;;;17.21;100.00;94557.59;5102813;27;20473;-50
2022/09/28 09:11:54;;;;;;;1.08;0.30;;;;;;;16.67;100.00;94578.13;5124819;27;20094;-52
2022/09/28 09:15:07;;;;;;;0.30;0.30;;;;;;;17.03;100.00;94579.00;5116955;27;20568;-50
2022/09/28 09:17:43;;;;;;;1.55;0.47;;;;;;;16.65;100.00;94582.84;5115975;27;20070;-55
2022/09/28 09:20:18;;;;;;;0.30;0.30;;;;;;;16.24;100.00;94595.13;5116874;27;20090;-53
2022/09/28 09:22:57;;;;;;;0.98;0.63;;;;;;;17.28;100.00;94597.44;5110172;27;20095;-54
2022/09/28 09:25:28;;;;;;;1.17;0.57;;;;;;;16.91;100.00;94599.50;5112383;27;20082;-50
2022/09/28 09:28:25;;;;;;;0.63;0.63;;;;;;;16.93;100.00;94592.06;5114836;27;20086;-52
2022/09/28 09:31:07;;;;;;;0.50;0.50;;;;;;;16.73;100.00;94598.50;5108404;28;20088;-51
2022/09/28 09:34:02;;;;;;;0.95;0.70;;;;;;;17.70;100.00;94583.94;5103984;27;20081;-49
2022/09/28 09:36:37;;;;;;;0.50;0.50;;;;;;;17.36;100.00;94581.09;5129821;27;20078;-49
2022/09/28 09:39:18;;;;;;;2.42;0.60;;;;;;;17.85;100.00;94583.47;5124504;28;20075;-51
2022/09/28 09:41:58;;;;;;;1.33;0.60;;;;;;;17.51;100.00;94594.75;5114446;28;20093;-53
2022/09/28 09:44:56;;;;;;;1.08;0.60;;;;;;;17.19;100.00;94580.19;5115384;28;20097;-51
2022/09/28 09:47:29;;;;;;;1.63;0.60;;;;;;;17.94;100.00;94582.06;5105640;28;20552;-52
2022/09/28 09:50:03;;;;;;;0.55;0.50;;;;;;;18.31;100.00;94579.84;5092037;28;20071;-47
2022/09/28 09:52:45;;;;;;;0.60;0.50;;;;;;;18.60;100.00;94585.16;5129356;28;20078;-52
2022/09/28 09:55:16;;;;;;;0.55;0.50;;;;;;;18.38;100.00;94591.19;5123907;28;20524;-50
2022/09/28 09:57:50;;;;;;;1.27;0.50;;;;;;;17.84;100.00;94603.19;5122588;28;20086;-49
2022/09/28 10:00:18;;;;;;;1.02;0.60;;;;;;;18.14;100.00;94592.34;5113001;27;20090;-52
2022/09/28 10:02:48;;;;;;;0.77;0.50;;;;;;;18.59;100.00;94594.22;5112308;27;20128;-48
2022/09/28 10:05:22;;;;;;;0.53;0.50;;;;;;;18.53;100.00;94595.97;5115636;27;20079;-48
2022/09/28 10:07:53;;;;;;;2.50;0.50;;;;;;;17.51;100.00;94599.25;5113115;28;20052;-46
2022/09/28 10:10:25;;;;;;;1.73;0.50;;;;;;;18.16;100.00;94606.22;5108861;27;20066;-47
2022/09/28 10:12:54;;;;;;;0.57;0.40;;;;;;;18.85;100.00;94598.97;5117363;27;20458;-51
2022/09/28 10:15:41;;;;;;;1.35;0.60;;;;;;;18.73;100.00;94603.56;5108054;27;20070;-51
2022/09/28 10:18:11;;;;;;;2.20;0.80;;;;;;;19.36;100.00;94597.09;5119299;27;20111;-49
2022/09/28 10:20:42;;;;;;;;;;;;;;;18.66;100.00;94602.88;5124880;27;20075;-48
2022/09/28 10:23:19;;;;;;;1.17;0.50;;;;;;;18.69;100.00;94597.06;5114027;27;20536;-47
2022/09/28 10:25:48;;;;;;;1.33;0.60;;;;;;;18.94;100.00;94594.03;5118959;27;20463;-46
2022/09/28 10:28:20;;;;;;;1.83;0.50;;;;;;;19.34;100.00;94604.56;5117839;27;20079;-49
2022/09/28 10:30:49;;;;;;;3.03;0.73;;;;;;;18.68;100.00;94598.09;5121042;27;20078;-45
2022/09/28 10:33:29;;;;;;;1.17;0.50;;;;;;;19.19;100.00;94601.63;5132294;27;20083;-51
2022/09/28 10:36:01;;;;;;;1.33;0.60;;;;;;;19.45;100.00;94609.00;5127158;27;20097;-49
2022/09/28 10:38:33;;;;;;;1.15;0.60;;;;;;;18.90;100.00;94606.28;5111318;27;20079;-53
2022/09/28 10:41:09;;;;;;;0.70;0.60;;;;;;;18.59;100.00;94610.25;5112011;28;20098;-50
2022/09/28 10:43:39;;;;;;;1.63;0.60;;;;;;;19.82;100.00;94612.97;5117574;27;20540;-47
2022/09/28 10:46:09;;;;;;;0.52;0.50;;;;;;;19.19;100.00;94623.00;5119880;27;20078;-52
2022/09/28 10:48:52;;;;;;;0.95;0.57;;;;;;;19.18;100.00;94624.88;5112227;27;20155;-50
2022/09/28 10:51:39;;;;;;;3.13;0.82;;;;;;;18.42;100.00;94635.03;5111253;28;20087;-50
2022/09/28 10:54:14;;;;;;;1.95;0.50;;;;;;;19.36;100.00;94628.34;5117711;27;20051;-45
2022/09/28 10:56:46;;;;;;;1.52;0.55;;;;;;;18.33;100.00;94633.78;5112773;27;20556;-50
2022/09/28 10:59:36;;;;;;;1.30;0.60;;;;;;;18.50;100.00;94633.81;5115548;27;20032;-48
2022/09/28 11:02:17;;;;;;;1.35;0.57;;;;;;;19.82;100.00;94623.69;5119243;27;20509;-50
2022/09/28 11:04:51;;;;;;;1.17;0.70;;;;;;;18.88;100.00;94627.84;5112076;27;20083;-53
2022/09/28 11:07:23;;;;;;;2.05;0.60;;;;;;;19.18;100.00;94634.78;5106347;27;20055;-47
2022/09/28 11:09:54;;;;;;;1.75;0.50;;;;;;;20.44;100.00;94634.09;5119014;27;20472;-49
2022/09/28 11:12:26;;;;;;;0.95;0.50;;;;;;;19.88;100.00;94638.75;5116408;27;20686;-48
2022/09/28 11:15:00;;;;;;;0.50;0.50;;;;;;;18.71;100.00;94635.00;5118753;27;20075;-52
2022/09/28 11:17:30;;;;;;;1.08;0.70;;;;;;;18.58;100.00;94632.63;5118636;27;20086;-48
2022/09/28 11:19:59;;;;;;;1.30;0.63;;;;;;;19.81;100.00;94636.25;5121481;27;20449;-48
2022/09/28 11:22:40;;;;;;;2.17;0.80;;;;;;;20.10;100.00;94636.91;5117917;27;20072;-46
2022/09/28 11:25:23;;;;;;;0.60;0.50;;;;;;;18.96;100.00;94642.69;5111184;27;20116;-52
2022/09/28 11:28:00;;;;;;;1.73;0.70;;;;;;;19.70;100.00;94639.84;5111808;27;20765;-50
2022/09/28 11:30:31;;;;;;;2.45;0.73;;;;;;;19.62;100.00;94650.94;5105924;27;20083;-51
2022/09/28 11:33:03;;;;;;;0.93;0.63;;;;;;;18.50;100.00;94656.00;5126051;27;20098;-49
2022/09/28 11:35:42;;;;;;;1.23;0.70;;;;;;;18.42;100.00;94658.25;5130414;27;20083;-46
2022/09/28 11:38:32;;;;;;;1.85;0.93;;;;;;;18.73;100.00;94663.13;5113911;27;20090;-51
2022/09/28 11:41:10;;;;;;;3.28;0.85;;;;;;;18.53;100.00;94660.03;5118938;27;20082;-48
2022/09/28 11:43:58;;;;;;;2.40;0.93;;;;;;;18.10;100.00;94668.50;5131309;27;20066;-50
2022/09/28 11:46:32;;;;;;;2.75;0.70;;;;;;;18.41;100.00;94652.09;5120932;27;20777;-52
2022/09/28 11:49:05;;;;;;;1.33;0.82;;;;;;;18.77;100.00;94650.09;5122215;27;20083;-46
2022/09/28 11:51:36;;;;;;;2.75;0.90;;;;;;;19.19;100.00;94653.22;5118816;27;20079;-51
2022/09/28 11:54:13;;;;;;;1.55;0.90;;;;;;;18.17;100.00;94658.53;5107008;28;20079;-47
2022/09/28 11:56:44;;;;;;;1.98;0.90;;;;;;;19.17;100.00;94650.00;5110179;27;20086;-52
2022/09/28 11:59:16;;;;;;;1.23;0.80;;;;;;;19.13;100.00;94653.38;5116483;27;20098;-49